LFRC/CER METAR and TAF weather

Enter ICAO airport designator
Station Type Date Time Source
LFRC METAR 2022/01/29 12:30 UTC NOAA

LFRC 291230Z AUTO 27020KT 9999 OVC005 09/08 Q1033 BECMG 27020G30KT


Station Type Date Time Source
LFRC Decoded METAR 2022/01/29 12:30 UTC NOAA

Cherbourg / Maupertus, France (LFRC) 49-39N 001-28W 139M
Jan 29, 2022 - 07:30 AM EST / 2022.01.29 1230 UTC
Wind: from the W (270 degrees) at 23 MPH (20 KT):0
Visibility: greater than 7 mile(s):0
Sky conditions: overcast
Temperature: 48 F (9 C)
Dew Point: 46 F (8 C)
Relative Humidity: 93%
Pressure (altimeter): 30.50 in. Hg (1033 hPa)
ob: LFRC 291230Z AUTO 27020KT 9999 OVC005 09/08 Q1033 BECMG 27020G30KT
cycle: 12

Station Type Date Time Source
LFRC TAF 2008/10/12 17:07 UTC NOAA

TAF
AMD LFRC 121707Z 121721 CNL

Example: see airport list